sensor_id;sensor_type;location;lat;lon;timestamp;P1;durP1;ratioP1;P2;durP2;ratioP2
73170;SDS011;61381;50.118;19.962;2024-01-27T00:04:57;1.70;;;1.08;;
73170;SDS011;61381;50.118;19.962;2024-01-27T00:09:58;2.72;;;0.90;;
73170;SDS011;61381;50.118;19.962;2024-01-27T00:15:00;3.80;;;1.00;;
73170;SDS011;61381;50.118;19.962;2024-01-27T00:20:02;3.38;;;0.60;;
73170;SDS011;61381;50.118;19.962;2024-01-27T00:25:03;2.92;;;0.98;;
73170;SDS011;61381;50.118;19.962;2024-01-27T00:30:07;1.95;;;0.47;;
73170;SDS011;61381;50.118;19.962;2024-01-27T00:35:08;3.67;;;0.95;;
73170;SDS011;61381;50.118;19.962;2024-01-27T00:40:10;4.97;;;0.95;;
73170;SDS011;61381;50.118;19.962;2024-01-27T00:45:13;1.50;;;0.60;;
73170;SDS011;61381;50.118;19.962;2024-01-27T00:50:14;4.40;;;1.20;;
73170;SDS011;61381;50.118;19.962;2024-01-27T00:55:15;4.22;;;0.95;;
73170;SDS011;61381;50.118;19.962;2024-01-27T01:00:17;2.90;;;0.75;;
73170;SDS011;61381;50.118;19.962;2024-01-27T01:05:18;2.67;;;0.95;;
73170;SDS011;61381;50.118;19.962;2024-01-27T01:10:19;4.88;;;0.73;;
73170;SDS011;61381;50.118;19.962;2024-01-27T01:15:22;4.63;;;1.23;;
73170;SDS011;61381;50.118;19.962;2024-01-27T01:20:22;5.35;;;1.17;;
73170;SDS011;61381;50.118;19.962;2024-01-27T01:25:23;2.78;;;1.50;;
73170;SDS011;61381;50.118;19.962;2024-01-27T01:30:26;3.08;;;1.00;;
73170;SDS011;61381;50.118;19.962;2024-01-27T01:35:27;4.32;;;0.88;;
73170;SDS011;61381;50.118;19.962;2024-01-27T01:40:28;2.72;;;0.77;;
73170;SDS011;61381;50.118;19.962;2024-01-27T01:45:30;6.47;;;1.88;;
73170;SDS011;61381;50.118;19.962;2024-01-27T01:50:31;6.15;;;1.52;;
73170;SDS011;61381;50.118;19.962;2024-01-27T01:55:32;3.35;;;0.98;;
73170;SDS011;61381;50.118;19.962;2024-01-27T02:00:34;5.18;;;1.20;;
73170;SDS011;61381;50.118;19.962;2024-01-27T02:05:35;2.75;;;0.45;;
73170;SDS011;61381;50.118;19.962;2024-01-27T02:10:36;3.20;;;0.65;;
73170;SDS011;61381;50.118;19.962;2024-01-27T02:15:38;3.05;;;0.93;;
73170;SDS011;61381;50.118;19.962;2024-01-27T02:20:39;1.50;;;0.38;;
73170;SDS011;61381;50.118;19.962;2024-01-27T02:25:42;4.10;;;0.98;;
73170;SDS011;61381;50.118;19.962;2024-01-27T02:30:43;4.32;;;1.35;;
73170;SDS011;61381;50.118;19.962;2024-01-27T02:35:44;3.88;;;1.25;;
73170;SDS011;61381;50.118;19.962;2024-01-27T02:40:46;1.92;;;0.60;;
73170;SDS011;61381;50.118;19.962;2024-01-27T02:45:47;1.83;;;0.50;;
73170;SDS011;61381;50.118;19.962;2024-01-27T02:50:48;1.95;;;0.60;;
73170;SDS011;61381;50.118;19.962;2024-01-27T02:55:50;2.75;;;0.63;;
73170;SDS011;61381;50.118;19.962;2024-01-27T03:00:51;2.83;;;0.90;;
73170;SDS011;61381;50.118;19.962;2024-01-27T03:05:52;1.90;;;0.80;;
73170;SDS011;61381;50.118;19.962;2024-01-27T03:10:54;4.80;;;1.45;;
73170;SDS011;61381;50.118;19.962;2024-01-27T03:15:55;0.95;;;0.57;;
73170;SDS011;61381;50.118;19.962;2024-01-27T03:20:56;3.50;;;0.82;;
73170;SDS011;61381;50.118;19.962;2024-01-27T03:25:58;7.65;;;1.80;;
73170;SDS011;61381;50.118;19.962;2024-01-27T03:30:59;8.32;;;1.55;;
73170;SDS011;61381;50.118;19.962;2024-01-27T03:36:00;2.72;;;0.70;;
73170;SDS011;61381;50.118;19.962;2024-01-27T03:41:02;5.07;;;1.08;;
73170;SDS011;61381;50.118;19.962;2024-01-27T03:46:03;3.53;;;0.93;;
73170;SDS011;61381;50.118;19.962;2024-01-27T03:56:06;5.85;;;1.20;;
73170;SDS011;61381;50.118;19.962;2024-01-27T04:01:07;1.60;;;0.22;;
73170;SDS011;61381;50.118;19.962;2024-01-27T04:06:08;9.35;;;1.30;;
73170;SDS011;61381;50.118;19.962;2024-01-27T04:11:18;4.53;;;1.23;;
73170;SDS011;61381;50.118;19.962;2024-01-27T04:16:19;2.90;;;1.35;;
73170;SDS011;61381;50.118;19.962;2024-01-27T04:21:20;5.05;;;0.95;;
73170;SDS011;61381;50.118;19.962;2024-01-27T04:26:22;3.40;;;0.93;;
73170;SDS011;61381;50.118;19.962;2024-01-27T04:31:23;3.13;;;0.90;;
73170;SDS011;61381;50.118;19.962;2024-01-27T04:36:27;2.67;;;1.08;;
73170;SDS011;61381;50.118;19.962;2024-01-27T04:41:29;3.47;;;1.02;;
73170;SDS011;61381;50.118;19.962;2024-01-27T04:46:30;2.85;;;0.68;;
73170;SDS011;61381;50.118;19.962;2024-01-27T04:51:31;1.48;;;0.65;;
73170;SDS011;61381;50.118;19.962;2024-01-27T04:56:33;7.43;;;3.60;;
73170;SDS011;61381;50.118;19.962;2024-01-27T05:01:34;1.10;;;0.60;;
73170;SDS011;61381;50.118;19.962;2024-01-27T05:06:35;3.25;;;1.33;;
73170;SDS011;61381;50.118;19.962;2024-01-27T05:11:37;3.65;;;0.80;;
73170;SDS011;61381;50.118;19.962;2024-01-27T05:16:38;2.88;;;1.17;;
73170;SDS011;61381;50.118;19.962;2024-01-27T05:21:39;6.68;;;1.67;;
73170;SDS011;61381;50.118;19.962;2024-01-27T05:26:41;2.80;;;0.32;;
73170;SDS011;61381;50.118;19.962;2024-01-27T05:31:42;3.95;;;0.93;;
73170;SDS011;61381;50.118;19.962;2024-01-27T05:36:43;2.25;;;1.23;;
73170;SDS011;61381;50.118;19.962;2024-01-27T05:41:46;1.75;;;0.82;;
73170;SDS011;61381;50.118;19.962;2024-01-27T05:46:47;3.40;;;0.73;;
73170;SDS011;61381;50.118;19.962;2024-01-27T05:51:47;2.85;;;0.73;;
73170;SDS011;61381;50.118;19.962;2024-01-27T05:56:50;4.07;;;1.48;;
73170;SDS011;61381;50.118;19.962;2024-01-27T06:01:51;2.10;;;0.90;;
73170;SDS011;61381;50.118;19.962;2024-01-27T06:06:52;4.80;;;1.02;;
73170;SDS011;61381;50.118;19.962;2024-01-27T06:11:54;5.82;;;1.38;;
73170;SDS011;61381;50.118;19.962;2024-01-27T06:16:59;1.65;;;1.08;;
73170;SDS011;61381;50.118;19.962;2024-01-27T06:22:01;7.45;;;1.25;;
73170;SDS011;61381;50.118;19.962;2024-01-27T06:27:03;2.38;;;1.30;;
73170;SDS011;61381;50.118;19.962;2024-01-27T06:32:05;3.38;;;0.60;;
73170;SDS011;61381;50.118;19.962;2024-01-27T06:37:05;6.30;;;1.63;;
73170;SDS011;61381;50.118;19.962;2024-01-27T06:42:08;3.60;;;1.25;;
73170;SDS011;61381;50.118;19.962;2024-01-27T06:47:09;4.28;;;1.23;;
73170;SDS011;61381;50.118;19.962;2024-01-27T06:52:10;4.13;;;1.58;;
73170;SDS011;61381;50.118;19.962;2024-01-27T06:57:19;2.92;;;1.15;;
73170;SDS011;61381;50.118;19.962;2024-01-27T07:02:22;5.75;;;1.60;;
73170;SDS011;61381;50.118;19.962;2024-01-27T07:07:24;6.10;;;0.85;;
73170;SDS011;61381;50.118;19.962;2024-01-27T07:12:27;3.55;;;1.58;;
73170;SDS011;61381;50.118;19.962;2024-01-27T07:17:28;6.40;;;1.45;;
73170;SDS011;61381;50.118;19.962;2024-01-27T07:22:29;4.97;;;1.00;;
73170;SDS011;61381;50.118;19.962;2024-01-27T07:27:32;2.67;;;1.00;;
73170;SDS011;61381;50.118;19.962;2024-01-27T07:32:33;2.00;;;1.10;;
73170;SDS011;61381;50.118;19.962;2024-01-27T07:37:34;3.83;;;1.80;;
73170;SDS011;61381;50.118;19.962;2024-01-27T07:42:36;3.53;;;1.83;;
73170;SDS011;61381;50.118;19.962;2024-01-27T07:47:37;5.80;;;1.17;;
73170;SDS011;61381;50.118;19.962;2024-01-27T07:52:38;7.05;;;1.45;;
73170;SDS011;61381;50.118;19.962;2024-01-27T07:57:41;4.50;;;1.83;;
73170;SDS011;61381;50.118;19.962;2024-01-27T08:02:41;6.55;;;2.55;;
73170;SDS011;61381;50.118;19.962;2024-01-27T08:07:42;4.45;;;1.27;;
73170;SDS011;61381;50.118;19.962;2024-01-27T08:12:45;3.67;;;1.17;;
73170;SDS011;61381;50.118;19.962;2024-01-27T08:17:45;5.10;;;1.27;;
73170;SDS011;61381;50.118;19.962;2024-01-27T08:22:46;4.25;;;1.67;;
73170;SDS011;61381;50.118;19.962;2024-01-27T08:27:49;3.88;;;1.58;;
73170;SDS011;61381;50.118;19.962;2024-01-27T08:32:49;2.08;;;1.05;;
73170;SDS011;61381;50.118;19.962;2024-01-27T08:37:50;5.50;;;1.75;;
73170;SDS011;61381;50.118;19.962;2024-01-27T08:42:53;6.68;;;1.73;;
73170;SDS011;61381;50.118;19.962;2024-01-27T08:47:53;5.05;;;1.27;;
73170;SDS011;61381;50.118;19.962;2024-01-27T08:52:54;3.42;;;1.40;;
73170;SDS011;61381;50.118;19.962;2024-01-27T08:57:57;2.53;;;1.38;;
73170;SDS011;61381;50.118;19.962;2024-01-27T09:02:58;6.68;;;2.15;;
73170;SDS011;61381;50.118;19.962;2024-01-27T09:07:59;7.65;;;1.25;;
73170;SDS011;61381;50.118;19.962;2024-01-27T09:13:03;6.25;;;1.77;;
73170;SDS011;61381;50.118;19.962;2024-01-27T09:18:04;8.95;;;2.13;;
73170;SDS011;61381;50.118;19.962;2024-01-27T09:23:05;4.95;;;1.88;;
73170;SDS011;61381;50.118;19.962;2024-01-27T09:28:07;7.63;;;2.38;;
73170;SDS011;61381;50.118;19.962;2024-01-27T09:33:08;4.05;;;1.55;;
73170;SDS011;61381;50.118;19.962;2024-01-27T09:38:09;8.23;;;2.33;;
73170;SDS011;61381;50.118;19.962;2024-01-27T09:43:12;8.13;;;2.70;;
73170;SDS011;61381;50.118;19.962;2024-01-27T09:48:14;7.53;;;1.38;;
73170;SDS011;61381;50.118;19.962;2024-01-27T09:53:15;5.70;;;1.77;;
73170;SDS011;61381;50.118;19.962;2024-01-27T09:58:17;3.88;;;1.23;;
73170;SDS011;61381;50.118;19.962;2024-01-27T10:03:18;5.63;;;1.65;;
73170;SDS011;61381;50.118;19.962;2024-01-27T10:13:22;8.30;;;2.33;;
73170;SDS011;61381;50.118;19.962;2024-01-27T10:18:23;8.05;;;2.78;;
73170;SDS011;61381;50.118;19.962;2024-01-27T10:23:24;6.85;;;2.67;;
73170;SDS011;61381;50.118;19.962;2024-01-27T10:28:27;3.45;;;1.58;;
73170;SDS011;61381;50.118;19.962;2024-01-27T10:33:27;3.33;;;1.50;;
73170;SDS011;61381;50.118;19.962;2024-01-27T10:38:34;7.22;;;2.33;;
73170;SDS011;61381;50.118;19.962;2024-01-27T10:43:38;6.82;;;2.97;;
73170;SDS011;61381;50.118;19.962;2024-01-27T10:48:40;7.35;;;3.60;;
73170;SDS011;61381;50.118;19.962;2024-01-27T10:53:42;8.93;;;2.53;;
73170;SDS011;61381;50.118;19.962;2024-01-27T10:58:50;9.15;;;4.32;;
73170;SDS011;61381;50.118;19.962;2024-01-27T11:03:53;10.43;;;3.15;;
73170;SDS011;61381;50.118;19.962;2024-01-27T11:08:55;8.82;;;2.53;;
73170;SDS011;61381;50.118;19.962;2024-01-27T11:13:58;8.75;;;3.63;;
73170;SDS011;61381;50.118;19.962;2024-01-27T11:18:59;6.88;;;2.90;;
73170;SDS011;61381;50.118;19.962;2024-01-27T11:24:00;3.60;;;1.85;;
73170;SDS011;61381;50.118;19.962;2024-01-27T11:29:06;5.63;;;3.10;;
73170;SDS011;61381;50.118;19.962;2024-01-27T11:34:09;5.13;;;2.10;;
73170;SDS011;61381;50.118;19.962;2024-01-27T11:39:26;4.78;;;2.10;;
73170;SDS011;61381;50.118;19.962;2024-01-27T11:44:30;5.80;;;2.83;;
73170;SDS011;61381;50.118;19.962;2024-01-27T11:49:30;16.88;;;2.97;;
73170;SDS011;61381;50.118;19.962;2024-01-27T11:54:33;7.95;;;3.55;;
73170;SDS011;61381;50.118;19.962;2024-01-27T11:59:35;9.65;;;3.58;;
73170;SDS011;61381;50.118;19.962;2024-01-27T12:04:36;7.43;;;3.88;;
73170;SDS011;61381;50.118;19.962;2024-01-27T12:09:37;9.07;;;3.15;;
73170;SDS011;61381;50.118;19.962;2024-01-27T12:14:40;5.60;;;2.38;;
73170;SDS011;61381;50.118;19.962;2024-01-27T12:19:45;9.02;;;2.88;;
73170;SDS011;61381;50.118;19.962;2024-01-27T12:24:47;9.25;;;3.75;;
73170;SDS011;61381;50.118;19.962;2024-01-27T12:29:49;8.63;;;3.30;;
73170;SDS011;61381;50.118;19.962;2024-01-27T12:34:50;7.18;;;3.60;;
73170;SDS011;61381;50.118;19.962;2024-01-27T12:39:51;12.68;;;3.85;;
73170;SDS011;61381;50.118;19.962;2024-01-27T12:44:54;8.32;;;2.00;;
73170;SDS011;61381;50.118;19.962;2024-01-27T12:49:54;8.02;;;3.85;;
73170;SDS011;61381;50.118;19.962;2024-01-27T12:54:55;5.47;;;2.40;;
73170;SDS011;61381;50.118;19.962;2024-01-27T12:59:58;3.80;;;2.35;;
73170;SDS011;61381;50.118;19.962;2024-01-27T13:04:58;7.78;;;2.47;;
73170;SDS011;61381;50.118;19.962;2024-01-27T13:09:59;4.65;;;2.72;;
73170;SDS011;61381;50.118;19.962;2024-01-27T13:15:02;4.32;;;3.40;;
73170;SDS011;61381;50.118;19.962;2024-01-27T13:20:04;7.35;;;3.20;;
73170;SDS011;61381;50.118;19.962;2024-01-27T13:25:05;5.82;;;2.33;;
73170;SDS011;61381;50.118;19.962;2024-01-27T13:30:09;7.90;;;2.33;;
73170;SDS011;61381;50.118;19.962;2024-01-27T13:35:10;5.50;;;2.58;;
73170;SDS011;61381;50.118;19.962;2024-01-27T13:40:11;6.07;;;2.72;;
73170;SDS011;61381;50.118;19.962;2024-01-27T13:45:14;5.50;;;2.35;;
73170;SDS011;61381;50.118;19.962;2024-01-27T13:50:15;4.15;;;2.08;;
73170;SDS011;61381;50.118;19.962;2024-01-27T13:55:16;4.93;;;2.67;;
73170;SDS011;61381;50.118;19.962;2024-01-27T14:00:18;6.70;;;1.98;;
73170;SDS011;61381;50.118;19.962;2024-01-27T14:05:20;4.85;;;1.67;;
73170;SDS011;61381;50.118;19.962;2024-01-27T14:10:21;4.07;;;1.92;;
73170;SDS011;61381;50.118;19.962;2024-01-27T14:15:23;9.00;;;2.65;;
73170;SDS011;61381;50.118;19.962;2024-01-27T14:20:24;5.38;;;2.25;;
73170;SDS011;61381;50.118;19.962;2024-01-27T14:25:25;6.30;;;3.13;;
73170;SDS011;61381;50.118;19.962;2024-01-27T14:30:27;6.43;;;2.20;;
73170;SDS011;61381;50.118;19.962;2024-01-27T14:35:28;6.00;;;2.55;;
73170;SDS011;61381;50.118;19.962;2024-01-27T14:40:29;5.47;;;2.08;;
73170;SDS011;61381;50.118;19.962;2024-01-27T14:45:31;4.72;;;2.17;;
73170;SDS011;61381;50.118;19.962;2024-01-27T14:50:33;3.28;;;1.92;;
73170;SDS011;61381;50.118;19.962;2024-01-27T14:55:34;5.32;;;2.13;;
73170;SDS011;61381;50.118;19.962;2024-01-27T15:00:36;6.43;;;2.50;;
73170;SDS011;61381;50.118;19.962;2024-01-27T15:05:37;5.15;;;2.50;;
73170;SDS011;61381;50.118;19.962;2024-01-27T15:10:38;6.72;;;3.15;;
73170;SDS011;61381;50.118;19.962;2024-01-27T15:15:40;4.97;;;2.78;;
73170;SDS011;61381;50.118;19.962;2024-01-27T15:20:41;5.00;;;2.17;;
73170;SDS011;61381;50.118;19.962;2024-01-27T15:25:42;5.80;;;3.10;;
73170;SDS011;61381;50.118;19.962;2024-01-27T15:30:45;7.30;;;2.50;;
73170;SDS011;61381;50.118;19.962;2024-01-27T15:35:46;6.03;;;2.70;;
73170;SDS011;61381;50.118;19.962;2024-01-27T15:40:47;5.95;;;2.33;;
73170;SDS011;61381;50.118;19.962;2024-01-27T15:45:49;5.03;;;2.28;;
73170;SDS011;61381;50.118;19.962;2024-01-27T15:50:50;5.80;;;2.08;;
73170;SDS011;61381;50.118;19.962;2024-01-27T15:55:51;3.70;;;1.73;;
73170;SDS011;61381;50.118;19.962;2024-01-27T16:00:54;5.95;;;3.28;;
73170;SDS011;61381;50.118;19.962;2024-01-27T16:05:55;4.43;;;2.63;;
73170;SDS011;61381;50.118;19.962;2024-01-27T16:10:56;2.60;;;1.65;;
73170;SDS011;61381;50.118;19.962;2024-01-27T16:15:58;5.07;;;2.22;;
73170;SDS011;61381;50.118;19.962;2024-01-27T16:20:59;3.40;;;2.10;;
73170;SDS011;61381;50.118;19.962;2024-01-27T16:26:00;5.28;;;2.42;;
73170;SDS011;61381;50.118;19.962;2024-01-27T16:31:03;7.28;;;3.10;;
73170;SDS011;61381;50.118;19.962;2024-01-27T16:36:04;7.03;;;3.08;;
73170;SDS011;61381;50.118;19.962;2024-01-27T16:41:05;6.63;;;3.03;;
73170;SDS011;61381;50.118;19.962;2024-01-27T16:46:08;6.65;;;2.80;;
73170;SDS011;61381;50.118;19.962;2024-01-27T16:51:08;4.90;;;2.50;;
73170;SDS011;61381;50.118;19.962;2024-01-27T16:56:10;6.45;;;3.15;;
73170;SDS011;61381;50.118;19.962;2024-01-27T17:01:12;7.10;;;3.53;;
73170;SDS011;61381;50.118;19.962;2024-01-27T17:06:13;3.03;;;2.17;;
73170;SDS011;61381;50.118;19.962;2024-01-27T17:11:14;9.13;;;2.78;;
73170;SDS011;61381;50.118;19.962;2024-01-27T17:16:16;7.97;;;4.03;;
73170;SDS011;61381;50.118;19.962;2024-01-27T17:21:17;9.88;;;3.95;;
73170;SDS011;61381;50.118;19.962;2024-01-27T17:26:18;13.80;;;5.75;;
73170;SDS011;61381;50.118;19.962;2024-01-27T17:31:20;8.82;;;4.63;;
73170;SDS011;61381;50.118;19.962;2024-01-27T17:36:30;9.18;;;3.95;;
73170;SDS011;61381;50.118;19.962;2024-01-27T17:41:34;9.15;;;4.65;;
73170;SDS011;61381;50.118;19.962;2024-01-27T17:46:40;12.73;;;5.07;;
73170;SDS011;61381;50.118;19.962;2024-01-27T17:51:46;11.77;;;4.97;;
73170;SDS011;61381;50.118;19.962;2024-01-27T17:56:47;13.63;;;6.43;;
73170;SDS011;61381;50.118;19.962;2024-01-27T18:01:49;8.25;;;4.75;;
73170;SDS011;61381;50.118;19.962;2024-01-27T18:06:50;21.33;;;7.60;;
73170;SDS011;61381;50.118;19.962;2024-01-27T18:11:51;19.67;;;6.03;;
73170;SDS011;61381;50.118;19.962;2024-01-27T18:16:53;8.43;;;4.72;;
73170;SDS011;61381;50.118;19.962;2024-01-27T18:21:54;11.32;;;4.57;;
73170;SDS011;61381;50.118;19.962;2024-01-27T18:26:57;7.93;;;4.13;;
73170;SDS011;61381;50.118;19.962;2024-01-27T18:31:59;13.18;;;4.70;;
73170;SDS011;61381;50.118;19.962;2024-01-27T18:37:00;8.80;;;4.03;;
73170;SDS011;61381;50.118;19.962;2024-01-27T18:42:01;6.30;;;3.05;;
73170;SDS011;61381;50.118;19.962;2024-01-27T18:47:04;5.53;;;3.58;;
73170;SDS011;61381;50.118;19.962;2024-01-27T18:52:05;9.07;;;5.43;;
73170;SDS011;61381;50.118;19.962;2024-01-27T18:57:09;10.48;;;3.53;;
73170;SDS011;61381;50.118;19.962;2024-01-27T19:02:13;7.63;;;3.72;;
73170;SDS011;61381;50.118;19.962;2024-01-27T19:07:14;11.18;;;5.00;;
73170;SDS011;61381;50.118;19.962;2024-01-27T19:12:15;10.73;;;4.28;;
73170;SDS011;61381;50.118;19.962;2024-01-27T19:17:17;12.15;;;5.60;;
73170;SDS011;61381;50.118;19.962;2024-01-27T19:22:18;6.43;;;2.30;;
73170;SDS011;61381;50.118;19.962;2024-01-27T19:27:21;10.57;;;4.40;;
73170;SDS011;61381;50.118;19.962;2024-01-27T19:32:23;10.20;;;4.20;;
73170;SDS011;61381;50.118;19.962;2024-01-27T19:37:24;9.48;;;2.92;;
73170;SDS011;61381;50.118;19.962;2024-01-27T19:42:25;8.73;;;2.60;;
73170;SDS011;61381;50.118;19.962;2024-01-27T19:47:27;7.43;;;2.70;;
73170;SDS011;61381;50.118;19.962;2024-01-27T19:52:28;6.32;;;2.78;;
73170;SDS011;61381;50.118;19.962;2024-01-27T19:57:30;12.82;;;4.00;;
73170;SDS011;61381;50.118;19.962;2024-01-27T20:02:35;9.40;;;2.90;;
73170;SDS011;61381;50.118;19.962;2024-01-27T20:07:39;13.45;;;4.32;;
73170;SDS011;61381;50.118;19.962;2024-01-27T20:12:40;12.70;;;2.38;;
73170;SDS011;61381;50.118;19.962;2024-01-27T20:17:42;12.75;;;2.70;;
73170;SDS011;61381;50.118;19.962;2024-01-27T20:22:43;11.13;;;2.63;;
73170;SDS011;61381;50.118;19.962;2024-01-27T20:27:44;7.47;;;2.22;;
73170;SDS011;61381;50.118;19.962;2024-01-27T20:32:46;12.95;;;2.80;;
73170;SDS011;61381;50.118;19.962;2024-01-27T20:37:47;2.53;;;1.48;;
73170;SDS011;61381;50.118;19.962;2024-01-27T20:42:48;6.88;;;1.85;;
73170;SDS011;61381;50.118;19.962;2024-01-27T20:47:50;4.05;;;2.08;;
73170;SDS011;61381;50.118;19.962;2024-01-27T20:52:51;4.78;;;1.73;;
73170;SDS011;61381;50.118;19.962;2024-01-27T20:57:52;5.45;;;2.05;;
73170;SDS011;61381;50.118;19.962;2024-01-27T21:02:55;8.48;;;2.65;;
73170;SDS011;61381;50.118;19.962;2024-01-27T21:07:56;4.72;;;2.30;;
73170;SDS011;61381;50.118;19.962;2024-01-27T21:12:57;10.85;;;2.65;;
73170;SDS011;61381;50.118;19.962;2024-01-27T21:17:59;6.85;;;3.00;;
73170;SDS011;61381;50.118;19.962;2024-01-27T21:23:00;11.50;;;3.03;;
73170;SDS011;61381;50.118;19.962;2024-01-27T21:28:01;8.88;;;2.30;;
73170;SDS011;61381;50.118;19.962;2024-01-27T21:33:03;7.10;;;1.90;;
73170;SDS011;61381;50.118;19.962;2024-01-27T21:38:04;5.80;;;1.85;;
73170;SDS011;61381;50.118;19.962;2024-01-27T21:43:06;6.38;;;2.00;;
73170;SDS011;61381;50.118;19.962;2024-01-27T21:48:08;11.82;;;2.65;;
73170;SDS011;61381;50.118;19.962;2024-01-27T21:53:09;5.07;;;1.98;;
73170;SDS011;61381;50.118;19.962;2024-01-27T21:58:10;8.40;;;1.75;;
73170;SDS011;61381;50.118;19.962;2024-01-27T22:03:12;9.90;;;1.88;;
73170;SDS011;61381;50.118;19.962;2024-01-27T22:08:13;6.10;;;2.28;;
73170;SDS011;61381;50.118;19.962;2024-01-27T22:13:14;6.55;;;2.03;;
73170;SDS011;61381;50.118;19.962;2024-01-27T22:18:16;11.15;;;3.72;;
73170;SDS011;61381;50.118;19.962;2024-01-27T22:23:17;6.20;;;1.83;;
73170;SDS011;61381;50.118;19.962;2024-01-27T22:28:18;3.90;;;1.45;;
73170;SDS011;61381;50.118;19.962;2024-01-27T22:33:20;7.10;;;2.13;;
73170;SDS011;61381;50.118;19.962;2024-01-27T22:38:21;7.70;;;2.20;;
73170;SDS011;61381;50.118;19.962;2024-01-27T22:43:22;4.35;;;1.88;;
73170;SDS011;61381;50.118;19.962;2024-01-27T22:48:24;4.93;;;2.38;;
73170;SDS011;61381;50.118;19.962;2024-01-27T22:53:27;9.88;;;2.40;;
73170;SDS011;61381;50.118;19.962;2024-01-27T22:58:29;6.88;;;2.38;;
73170;SDS011;61381;50.118;19.962;2024-01-27T23:03:32;3.67;;;1.73;;
73170;SDS011;61381;50.118;19.962;2024-01-27T23:08:32;6.07;;;1.80;;
73170;SDS011;61381;50.118;19.962;2024-01-27T23:13:33;6.85;;;2.45;;
73170;SDS011;61381;50.118;19.962;2024-01-27T23:18:36;9.20;;;2.92;;
73170;SDS011;61381;50.118;19.962;2024-01-27T23:23:36;9.35;;;2.88;;
73170;SDS011;61381;50.118;19.962;2024-01-27T23:28:37;9.65;;;2.70;;
73170;SDS011;61381;50.118;19.962;2024-01-27T23:33:40;6.43;;;2.60;;
73170;SDS011;61381;50.118;19.962;2024-01-27T23:38:41;4.85;;;1.95;;
73170;SDS011;61381;50.118;19.962;2024-01-27T23:43:42;3.97;;;1.58;;
73170;SDS011;61381;50.118;19.962;2024-01-27T23:48:44;5.65;;;3.08;;
73170;SDS011;61381;50.118;19.962;2024-01-27T23:53:45;6.65;;;2.75;;
73170;SDS011;61381;50.118;19.962;2024-01-27T23:58:46;6.57;;;2.80;;
